createdAt,value
2023-01-25T00:01:51.869Z,2.00
2023-01-25T00:04:20.850Z,2.04
2023-01-25T00:06:51.049Z,2.27
2023-01-25T00:09:20.234Z,2.28
2023-01-25T00:11:48.772Z,2.32
2023-01-25T00:14:18.229Z,2.35
2023-01-25T00:16:46.650Z,2.37
2023-01-25T00:19:15.080Z,2.12
2023-01-25T00:21:43.545Z,2.24
2023-01-25T00:24:14.642Z,2.20
2023-01-25T00:26:45.090Z,2.42
2023-01-25T00:29:15.536Z,2.34
2023-01-25T00:31:52.344Z,2.29
2023-01-25T00:34:47.893Z,2.31
2023-01-25T00:37:22.366Z,2.20
2023-01-25T00:39:52.347Z,2.17
2023-01-25T00:42:21.517Z,2.20
2023-01-25T00:44:51.481Z,2.01
2023-01-25T00:47:19.944Z,2.02
2023-01-25T00:49:48.912Z,2.00
2023-01-25T00:52:16.947Z,1.91
2023-01-25T00:54:45.611Z,1.98
2023-01-25T00:57:15.186Z,2.17
2023-01-25T00:59:44.898Z,2.11
2023-01-25T01:02:13.594Z,2.09
2023-01-25T01:04:42.031Z,2.15
2023-01-25T01:07:10.305Z,2.17
2023-01-25T01:09:38.655Z,2.16
2023-01-25T01:12:07.170Z,2.22
2023-01-25T01:14:37.379Z,2.00
2023-01-25T01:17:05.652Z,2.15
2023-01-25T01:19:33.877Z,1.81
2023-01-25T01:22:02.268Z,1.99
2023-01-25T01:24:30.795Z,2.12
2023-01-25T01:26:59.361Z,2.04
2023-01-25T01:29:27.513Z,2.12
2023-01-25T01:31:57.447Z,2.26
2023-01-25T01:34:25.884Z,2.17
2023-01-25T01:36:54.024Z,2.05
2023-01-25T01:39:22.398Z,2.16
2023-01-25T01:41:50.528Z,2.08
2023-01-25T01:44:22.740Z,2.07
2023-01-25T01:46:54.519Z,2.21
2023-01-25T01:49:28.130Z,2.26
2023-01-25T01:52:02.337Z,2.19
2023-01-25T01:54:34.969Z,2.13
2023-01-25T01:57:08.865Z,2.07
2023-01-25T01:59:45.438Z,2.25
2023-01-25T02:02:14.770Z,2.20
2023-01-25T02:04:47.711Z,2.15
2023-01-25T02:07:21.419Z,2.13
2023-01-25T02:09:51.849Z,1.98
2023-01-25T02:12:22.335Z,2.05
2023-01-25T02:14:52.958Z,1.85
2023-01-25T02:17:24.725Z,1.60
2023-01-25T02:20:00.823Z,1.72
2023-01-25T02:22:38.103Z,1.60
2023-01-25T02:25:10.657Z,1.62
2023-01-25T02:27:42.687Z,1.81
2023-01-25T02:30:12.062Z,1.72
2023-01-25T02:32:40.455Z,1.90
2023-01-25T02:35:10.412Z,1.81
2023-01-25T02:37:39.101Z,1.93
2023-01-25T02:40:15.244Z,1.90
2023-01-25T02:42:46.310Z,1.98
2023-01-25T02:45:20.750Z,2.00
2023-01-25T02:47:50.146Z,1.83
2023-01-25T02:50:18.553Z,1.71
2023-01-25T02:52:46.937Z,1.72
2023-01-25T02:55:16.957Z,1.63
2023-01-25T02:57:45.582Z,1.64
2023-01-25T03:00:15.001Z,1.81
2023-01-25T03:02:43.300Z,1.62
2023-01-25T03:05:11.827Z,1.71
2023-01-25T03:07:42.305Z,1.80
2023-01-25T03:10:12.401Z,1.72
2023-01-25T03:12:42.417Z,1.68
2023-01-25T03:15:11.314Z,1.87
2023-01-25T03:17:39.729Z,1.86
2023-01-25T03:20:09.045Z,1.79
2023-01-25T03:22:37.153Z,1.72
2023-01-25T03:25:07.037Z,1.86
2023-01-25T03:27:35.669Z,1.69
2023-01-25T03:30:06.449Z,1.76
2023-01-25T03:32:34.820Z,1.88
2023-01-25T03:35:03.400Z,1.85
2023-01-25T03:37:32.173Z,1.93
2023-01-25T03:40:00.384Z,1.88
2023-01-25T03:42:28.893Z,1.97
2023-01-25T03:44:57.251Z,1.92
2023-01-25T03:47:27.221Z,1.81
2023-01-25T03:49:55.258Z,1.83
2023-01-25T03:52:24.867Z,1.78
2023-01-25T03:54:54.017Z,1.80
2023-01-25T03:57:22.452Z,1.73
2023-01-25T03:59:50.650Z,1.83
2023-01-25T04:02:18.941Z,1.81
2023-01-25T04:04:49.411Z,1.83
2023-01-25T04:07:17.441Z,1.67
2023-01-25T04:09:45.529Z,1.76
2023-01-25T04:12:13.999Z,1.66
2023-01-25T04:14:44.690Z,1.69
2023-01-25T04:17:14.347Z,1.91
2023-01-25T04:19:42.947Z,1.89
2023-01-25T04:22:15.512Z,1.99
2023-01-25T04:24:44.500Z,1.86
2023-01-25T04:27:12.713Z,1.93
2023-01-25T04:29:42.273Z,1.98
2023-01-25T04:32:10.773Z,1.93
2023-01-25T04:34:39.301Z,2.06
2023-01-25T04:37:07.920Z,2.01
2023-01-25T04:39:37.772Z,2.03
2023-01-25T04:42:06.091Z,1.83
2023-01-25T04:44:34.399Z,2.03
2023-01-25T04:47:03.791Z,1.96
2023-01-25T04:49:32.326Z,1.99
2023-01-25T04:52:00.536Z,2.09
2023-01-25T04:54:28.809Z,2.10
2023-01-25T04:56:58.760Z,2.13
2023-01-25T04:59:27.097Z,2.09
2023-01-25T05:01:55.780Z,2.13
2023-01-25T05:04:24.312Z,1.92
2023-01-25T05:06:52.622Z,1.83
2023-01-25T05:09:22.582Z,1.84
2023-01-25T05:11:50.591Z,1.73
2023-01-25T05:14:20.318Z,1.83
2023-01-25T05:16:48.907Z,1.78
2023-01-25T05:19:17.497Z,1.76
2023-01-25T05:22:01.562Z,1.77
2023-01-25T05:24:31.406Z,1.75
2023-01-25T05:27:03.815Z,1.86
2023-01-25T05:29:37.432Z,1.94
2023-01-25T05:32:06.378Z,1.83
2023-01-25T05:34:35.334Z,1.83
2023-01-25T05:37:04.761Z,1.94
2023-01-25T05:39:33.689Z,1.80
2023-01-25T05:42:02.002Z,1.85
2023-01-25T05:44:30.137Z,1.88
2023-01-25T05:47:00.209Z,1.78
2023-01-25T05:49:29.162Z,1.75
2023-01-25T05:51:57.588Z,1.77
2023-01-25T05:54:26.111Z,1.72
2023-01-25T05:56:54.759Z,1.72
2023-01-25T05:59:22.887Z,1.81
2023-01-25T06:01:51.241Z,1.86
2023-01-25T06:04:21.713Z,1.67
2023-01-25T06:06:50.103Z,1.71
2023-01-25T06:09:18.469Z,1.76
2023-01-25T06:11:47.052Z,1.73
2023-01-25T06:14:15.500Z,1.81
2023-01-25T06:16:43.972Z,1.86
2023-01-25T06:19:14.470Z,1.90
2023-01-25T06:21:44.378Z,1.88
2023-01-25T06:24:13.367Z,1.68
2023-01-25T06:26:41.834Z,1.75
2023-01-25T06:29:09.961Z,1.61
2023-01-25T06:31:39.661Z,1.55
2023-01-25T06:34:09.201Z,1.59
2023-01-25T06:36:37.655Z,1.54
2023-01-25T06:39:10.534Z,1.29
2023-01-25T06:41:38.766Z,1.27
2023-01-25T06:44:07.328Z,1.39
2023-01-25T06:46:35.573Z,1.29
2023-01-25T06:49:03.729Z,1.34
2023-01-25T06:51:32.231Z,1.40
2023-01-25T06:54:04.413Z,1.45
2023-01-25T06:56:34.042Z,1.34
2023-01-25T06:59:02.571Z,1.42
2023-01-25T07:01:31.208Z,1.40
2023-01-25T07:04:00.797Z,1.51
2023-01-25T07:06:33.791Z,1.48
2023-01-25T07:09:05.696Z,1.51
2023-01-25T07:11:35.414Z,1.51
2023-01-25T07:14:04.103Z,1.55
2023-01-25T07:16:37.111Z,1.59
2023-01-25T07:19:06.080Z,1.59
2023-01-25T07:21:35.100Z,1.43
2023-01-25T07:24:04.519Z,1.43
2023-01-25T07:26:34.718Z,1.20
2023-01-25T07:29:05.486Z,1.27
2023-01-25T07:31:34.428Z,1.40
2023-01-25T07:34:02.806Z,1.51
2023-01-25T07:36:30.977Z,1.38
2023-01-25T07:39:00.115Z,1.34
2023-01-25T07:41:29.320Z,1.48
2023-01-25T07:43:59.093Z,1.28
2023-01-25T07:46:27.513Z,1.30
2023-01-25T07:48:56.615Z,1.25
2023-01-25T07:51:26.772Z,1.24
2023-01-25T07:53:57.715Z,1.31
2023-01-25T07:56:27.561Z,1.27
2023-01-25T07:58:56.451Z,1.38
2023-01-25T08:01:28.538Z,1.27
2023-01-25T08:03:57.840Z,1.33
2023-01-25T08:06:30.758Z,1.02
2023-01-25T08:09:00.262Z,1.24
2023-01-25T08:11:30.611Z,1.12
2023-01-25T08:13:59.151Z,0.81
2023-01-25T08:16:31.462Z,0.93
2023-01-25T08:19:02.010Z,1.07
2023-01-25T08:21:31.050Z,1.14
2023-01-25T08:24:04.130Z,1.17
2023-01-25T08:26:34.652Z,1.33
2023-01-25T08:29:05.459Z,1.15
2023-01-25T08:31:37.465Z,1.22
2023-01-25T08:34:07.492Z,1.39
2023-01-25T08:36:35.954Z,1.29
2023-01-25T08:39:08.716Z,1.33
2023-01-25T08:41:37.423Z,1.35
2023-01-25T08:44:06.258Z,1.47
2023-01-25T08:46:35.904Z,1.46
2023-01-25T08:49:05.200Z,1.31
2023-01-25T08:51:34.216Z,0.99
2023-01-25T08:54:06.144Z,1.31
2023-01-25T08:56:34.839Z,1.27
2023-01-25T08:59:03.006Z,1.27
2023-01-25T09:01:31.649Z,1.37
2023-01-25T09:04:01.727Z,1.40
2023-01-25T09:06:29.931Z,1.38
2023-01-25T09:09:00.065Z,1.19
2023-01-25T09:11:28.490Z,1.27
2023-01-25T09:13:57.420Z,1.05
2023-01-25T09:16:30.735Z,1.26
2023-01-25T09:19:02.633Z,1.06
2023-01-25T09:21:32.138Z,1.26
2023-01-25T09:24:08.622Z,1.35
2023-01-25T09:26:39.854Z,1.36
2023-01-25T09:29:09.054Z,1.22
2023-01-25T09:31:40.793Z,1.24
2023-01-25T09:34:11.384Z,1.25
2023-01-25T09:36:42.992Z,1.07
2023-01-25T09:39:12.411Z,1.22
2023-01-25T09:42:06.784Z,1.25
2023-01-25T09:45:05.493Z,1.25
2023-01-25T09:47:43.413Z,1.36
2023-01-25T09:50:36.137Z,1.56
2023-01-25T09:53:25.178Z,1.55
2023-01-25T09:55:55.919Z,1.50
2023-01-25T09:58:30.727Z,1.54
2023-01-25T10:01:14.407Z,1.05
2023-01-25T10:03:49.668Z,1.26
2023-01-25T10:06:24.460Z,1.43
2023-01-25T10:08:59.096Z,1.36
2023-01-25T10:11:29.645Z,1.39
2023-01-25T10:13:59.614Z,1.55
2023-01-25T10:16:33.372Z,1.55
2023-01-25T10:19:17.369Z,1.39
2023-01-25T10:21:51.318Z,1.38
2023-01-25T10:24:51.179Z,1.47
2023-01-25T10:27:32.708Z,1.64
2023-01-25T10:30:03.541Z,1.60
2023-01-25T10:32:35.755Z,1.28
2023-01-25T10:35:29.096Z,1.51
2023-01-25T10:38:06.881Z,1.33
2023-01-25T10:40:44.753Z,1.24
2023-01-25T10:43:18.632Z,1.38
2023-01-25T10:45:48.310Z,1.44
2023-01-25T10:48:21.234Z,1.47
2023-01-25T10:50:54.625Z,1.59
2023-01-25T10:53:40.147Z,1.13
2023-01-25T10:56:25.474Z,1.35
2023-01-25T10:59:06.435Z,1.52
2023-01-25T11:01:36.492Z,1.14
2023-01-25T11:04:05.151Z,1.33
2023-01-25T11:06:36.533Z,1.41
2023-01-25T11:09:37.592Z,1.63
2023-01-25T11:12:17.639Z,1.43
2023-01-25T11:14:46.542Z,1.54
2023-01-25T11:17:25.632Z,1.75
2023-01-25T11:20:13.152Z,1.78
2023-01-25T11:22:52.223Z,1.63
2023-01-25T11:25:36.719Z,1.58
2023-01-25T11:28:20.137Z,1.63
2023-01-25T11:30:49.955Z,1.58
2023-01-25T11:33:21.487Z,1.65
2023-01-25T11:36:02.255Z,1.54
2023-01-25T11:38:30.993Z,1.53
2023-01-25T11:41:07.492Z,1.49
2023-01-25T11:44:11.558Z,1.39
2023-01-25T11:46:52.391Z,1.24
2023-01-25T11:49:38.108Z,1.52
2023-01-25T11:52:16.944Z,1.22
2023-01-25T11:54:57.390Z,1.15
2023-01-25T11:57:45.192Z,1.11
2023-01-25T12:00:36.695Z,1.27
2023-01-25T12:03:25.344Z,1.17
2023-01-25T12:06:02.913Z,0.39
2023-01-25T12:08:56.911Z,0.29
2023-01-25T12:11:40.974Z,0.46
2023-01-25T12:14:18.221Z,0.26
2023-01-25T12:17:11.222Z,0.52
2023-01-25T12:20:07.301Z,0.90
2023-01-25T12:22:59.318Z,0.96
2023-01-25T12:25:49.425Z,1.19
2023-01-25T12:28:23.865Z,1.24
2023-01-25T12:30:57.700Z,1.35
2023-01-25T12:33:30.852Z,1.38
2023-01-25T12:36:08.376Z,1.25
2023-01-25T12:38:41.847Z,1.58
2023-01-25T12:41:22.333Z,1.35
2023-01-25T12:43:55.809Z,1.62
2023-01-25T12:46:32.470Z,1.51
2023-01-25T12:49:07.669Z,1.49
2023-01-25T12:51:40.171Z,1.58
2023-01-25T12:54:15.749Z,1.47
2023-01-25T12:56:51.481Z,1.42
2023-01-25T12:59:29.238Z,1.23
2023-01-25T13:02:14.857Z,1.06
2023-01-25T13:05:01.615Z,1.37
2023-01-25T13:07:37.994Z,1.35
2023-01-25T13:10:16.276Z,1.46
2023-01-25T13:12:52.977Z,1.46
2023-01-25T13:15:42.039Z,1.54
2023-01-25T13:18:40.307Z,1.36
2023-01-25T13:21:45.304Z,1.63
2023-01-25T13:24:24.258Z,1.62
2023-01-25T13:27:01.543Z,1.64
2023-01-25T13:29:47.485Z,1.43
2023-01-25T13:32:36.702Z,1.44
2023-01-25T13:35:26.508Z,1.34
2023-01-25T13:38:00.669Z,1.42
2023-01-25T13:40:34.396Z,1.34
2023-01-25T13:43:04.909Z,1.33
2023-01-25T13:45:36.747Z,1.30
2023-01-25T13:48:15.221Z,0.87
2023-01-25T13:50:51.222Z,0.89
2023-01-25T13:53:22.527Z,0.76
2023-01-25T13:55:53.707Z,1.05
2023-01-25T13:58:25.119Z,1.06
2023-01-25T14:00:57.190Z,1.06
2023-01-25T14:03:29.504Z,1.08
2023-01-25T14:06:02.786Z,1.13
2023-01-25T14:08:31.884Z,1.10
2023-01-25T14:11:00.984Z,1.08
2023-01-25T14:13:29.653Z,1.13
2023-01-25T14:16:00.175Z,1.33
2023-01-25T14:18:31.639Z,0.47
2023-01-25T14:21:18.342Z,0.69
2023-01-25T14:23:47.157Z,0.69
2023-01-25T14:26:20.480Z,0.68
2023-01-25T14:28:59.417Z,0.88
2023-01-25T14:31:35.966Z,1.02
2023-01-25T14:34:06.299Z,0.89
2023-01-25T14:36:36.879Z,0.91
2023-01-25T14:39:18.492Z,1.05
2023-01-25T14:42:00.777Z,1.20
2023-01-25T14:44:31.655Z,1.10
2023-01-25T14:47:30.282Z,1.23
2023-01-25T14:50:32.257Z,0.81
2023-01-25T14:53:10.059Z,1.01
2023-01-25T14:55:38.852Z,0.99
2023-01-25T14:58:09.509Z,0.96
2023-01-25T15:00:39.023Z,1.02
2023-01-25T15:03:15.730Z,0.90
2023-01-25T15:05:48.049Z,0.82
2023-01-25T15:08:30.107Z,0.76
2023-01-25T15:11:20.027Z,0.62
2023-01-25T15:13:49.415Z,0.56
2023-01-25T15:16:17.859Z,0.60
2023-01-25T15:18:48.563Z,0.25
2023-01-25T15:21:19.793Z,0.53
2023-01-25T15:23:51.054Z,0.58
2023-01-25T15:26:21.888Z,0.60
2023-01-25T15:28:51.734Z,0.76
2023-01-25T15:31:29.498Z,0.22
2023-01-25T15:33:58.610Z,0.38
2023-01-25T15:36:27.048Z,0.50
2023-01-25T15:38:57.692Z,0.47
2023-01-25T15:41:26.559Z,0.39
2023-01-25T15:43:54.851Z,0.54
2023-01-25T15:46:25.375Z,0.68
2023-01-25T15:48:54.434Z,0.74
2023-01-25T15:51:23.539Z,0.63
2023-01-25T15:53:52.465Z,0.67
2023-01-25T15:56:24.149Z,0.79
2023-01-25T15:58:54.580Z,-0.24
2023-01-25T16:01:24.154Z,-0.04
2023-01-25T16:03:53.230Z,0.30
2023-01-25T16:06:40.159Z,0.60
2023-01-25T16:09:16.383Z,0.73
2023-01-25T16:11:47.065Z,0.84
2023-01-25T16:14:15.820Z,0.98
2023-01-25T16:16:50.696Z,0.85
2023-01-25T16:19:23.595Z,0.78
2023-01-25T16:21:53.863Z,0.85
2023-01-25T16:24:26.995Z,0.81
2023-01-25T16:27:01.939Z,0.83
2023-01-25T16:29:36.547Z,0.80
2023-01-25T16:32:07.921Z,0.62
2023-01-25T16:34:50.773Z,0.59
2023-01-25T16:37:22.378Z,0.69
2023-01-25T16:39:56.228Z,0.73
2023-01-25T16:42:29.433Z,0.80
2023-01-25T16:45:01.246Z,0.86
2023-01-25T16:47:39.845Z,0.94
2023-01-25T16:50:27.317Z,0.75
2023-01-25T16:53:02.389Z,0.42
2023-01-25T16:55:32.891Z,0.35
2023-01-25T16:58:02.689Z,0.44
2023-01-25T17:00:31.087Z,0.65
2023-01-25T17:03:00.564Z,0.64
2023-01-25T17:05:33.777Z,0.77
2023-01-25T17:08:02.548Z,0.66
2023-01-25T17:10:34.917Z,0.48
2023-01-25T17:13:06.083Z,0.57
2023-01-25T17:15:36.804Z,0.55
2023-01-25T17:18:05.338Z,0.44
2023-01-25T17:20:34.075Z,-0.03
2023-01-25T17:23:03.756Z,0.22
2023-01-25T17:25:35.568Z,0.33
2023-01-25T17:28:05.875Z,0.46
2023-01-25T17:30:34.349Z,0.49
2023-01-25T17:33:02.921Z,0.41
2023-01-25T17:35:31.707Z,0.36
2023-01-25T17:38:00.125Z,0.49
2023-01-25T17:40:28.537Z,0.53
2023-01-25T17:42:57.437Z,0.52
2023-01-25T17:45:28.507Z,0.49
2023-01-25T17:47:59.734Z,0.43
2023-01-25T17:50:27.755Z,0.45
2023-01-25T17:52:56.175Z,0.44
2023-01-25T17:55:24.617Z,0.39
2023-01-25T17:57:53.316Z,0.28
2023-01-25T18:00:22.558Z,0.27
2023-01-25T18:02:53.904Z,0.21
2023-01-25T18:05:22.333Z,0.25
2023-01-25T18:07:50.957Z,0.22
2023-01-25T18:10:19.491Z,0.29
2023-01-25T18:13:03.775Z,0.12
2023-01-25T18:15:33.039Z,-0.16
2023-01-25T18:18:03.221Z,0.16
2023-01-25T18:20:31.611Z,0.01
2023-01-25T18:23:00.365Z,-0.01
2023-01-25T18:25:38.036Z,0.01
2023-01-25T18:28:06.899Z,-0.20
2023-01-25T18:30:37.526Z,0.09
2023-01-25T18:33:07.532Z,0.19
2023-01-25T18:35:36.276Z,0.16
2023-01-25T18:38:04.878Z,0.17
2023-01-25T18:40:33.494Z,0.21
2023-01-25T18:43:01.679Z,-0.23
2023-01-25T18:45:30.060Z,0.03
2023-01-25T18:47:58.538Z,0.09
2023-01-25T18:50:28.501Z,0.00
2023-01-25T18:52:56.915Z,0.08
2023-01-25T18:55:26.008Z,0.28
2023-01-25T18:57:54.488Z,0.19
2023-01-25T19:00:22.915Z,0.03
2023-01-25T19:02:51.402Z,0.23
2023-01-25T19:05:21.176Z,0.43
2023-01-25T19:07:51.007Z,0.34
2023-01-25T19:10:19.754Z,0.29
2023-01-25T19:12:48.093Z,0.30
2023-01-25T19:15:16.660Z,0.33
2023-01-25T19:17:45.697Z,0.42
2023-01-25T19:20:14.285Z,0.31
2023-01-25T19:22:42.857Z,0.29
2023-01-25T19:25:13.103Z,0.21
2023-01-25T19:27:41.430Z,0.27
2023-01-25T19:30:11.014Z,0.14
2023-01-25T19:32:39.457Z,0.15
2023-01-25T19:35:08.897Z,0.25
2023-01-25T19:37:37.513Z,0.22
2023-01-25T19:40:06.801Z,0.20
2023-01-25T19:42:37.450Z,0.36
2023-01-25T19:45:09.172Z,0.32
2023-01-25T19:47:37.505Z,0.37
2023-01-25T19:50:06.204Z,0.31
2023-01-25T19:52:34.728Z,0.27
2023-01-25T19:55:02.963Z,0.42
2023-01-25T19:57:32.786Z,0.43
2023-01-25T20:00:02.674Z,0.43
2023-01-25T20:02:31.035Z,0.46
2023-01-25T20:04:59.302Z,0.47
2023-01-25T20:07:28.051Z,0.51
2023-01-25T20:09:56.386Z,0.47
2023-01-25T20:12:25.035Z,0.43
2023-01-25T20:14:54.130Z,0.39
2023-01-25T20:17:23.982Z,0.44
2023-01-25T20:19:52.301Z,0.47
2023-01-25T20:22:20.478Z,0.55
2023-01-25T20:24:48.758Z,0.44
2023-01-25T20:27:16.854Z,0.38
2023-01-25T20:29:46.625Z,0.39
2023-01-25T20:32:30.550Z,0.11
2023-01-25T20:35:03.710Z,-0.06
2023-01-25T20:37:34.292Z,0.01
2023-01-25T20:40:02.653Z,-0.08
2023-01-25T20:42:31.144Z,0.12
2023-01-25T20:44:59.550Z,0.21
2023-01-25T20:47:27.923Z,0.24
2023-01-25T20:49:56.007Z,0.19
2023-01-25T20:52:26.076Z,0.38
2023-01-25T20:54:57.312Z,0.15
2023-01-25T20:57:25.344Z,0.31
2023-01-25T20:59:53.672Z,0.27
2023-01-25T21:02:21.806Z,-0.02
2023-01-25T21:04:50.127Z,0.11
2023-01-25T21:07:18.898Z,0.13
2023-01-25T21:09:50.047Z,0.16
2023-01-25T21:12:19.523Z,0.18
2023-01-25T21:14:47.832Z,0.22
2023-01-25T21:17:16.613Z,0.24
2023-01-25T21:19:45.061Z,0.19
2023-01-25T21:22:13.801Z,0.02
2023-01-25T21:24:42.535Z,0.06
2023-01-25T21:27:12.581Z,-0.08
2023-01-25T21:29:42.328Z,0.09
2023-01-25T21:32:10.595Z,-0.06
2023-01-25T21:34:38.806Z,-0.03
2023-01-25T21:37:07.205Z,-0.20
2023-01-25T21:39:35.947Z,-0.31
2023-01-25T21:42:06.307Z,-0.43
2023-01-25T21:44:54.084Z,-0.37
2023-01-25T21:47:30.316Z,-0.40
2023-01-25T21:50:18.515Z,-0.21
2023-01-25T21:52:48.200Z,-0.18
2023-01-25T21:55:16.932Z,-0.03
2023-01-25T21:57:47.504Z,0.06
2023-01-25T22:00:18.694Z,0.03
2023-01-25T22:02:47.235Z,0.13
2023-01-25T22:05:15.482Z,0.26
2023-01-25T22:07:43.705Z,0.20
2023-01-25T22:10:12.820Z,0.32
2023-01-25T22:12:41.403Z,0.21
2023-01-25T22:15:10.028Z,0.15
2023-01-25T22:17:39.901Z,0.13
2023-01-25T22:20:09.739Z,0.12
2023-01-25T22:22:38.241Z,0.10
2023-01-25T22:25:07.060Z,0.06
2023-01-25T22:27:48.637Z,0.04
2023-01-25T22:30:16.788Z,0.06
2023-01-25T22:32:46.215Z,0.15
2023-01-25T22:35:14.592Z,0.11
2023-01-25T22:37:42.910Z,-0.46
2023-01-25T22:40:12.694Z,-0.31
2023-01-25T22:42:41.321Z,-0.36
2023-01-25T22:45:10.410Z,-0.13
2023-01-25T22:47:38.800Z,-0.04
2023-01-25T22:50:12.309Z,-0.21
2023-01-25T22:52:40.801Z,-0.31
2023-01-25T22:55:10.028Z,-0.23
2023-01-25T22:57:38.485Z,-0.13
2023-01-25T23:00:10.027Z,-0.06
2023-01-25T23:02:38.648Z,0.06
2023-01-25T23:05:07.948Z,0.17
2023-01-25T23:07:37.705Z,0.18
2023-01-25T23:10:06.806Z,0.14
2023-01-25T23:12:34.836Z,0.06
2023-01-25T23:15:07.395Z,0.17
2023-01-25T23:17:56.478Z,0.21
2023-01-25T23:20:24.975Z,0.33
2023-01-25T23:22:54.871Z,0.38
2023-01-25T23:25:25.908Z,0.30
2023-01-25T23:27:54.245Z,0.14
2023-01-25T23:30:22.495Z,0.31
2023-01-25T23:32:50.695Z,0.06
2023-01-25T23:35:20.411Z,-0.04
2023-01-25T23:37:49.973Z,-0.02
2023-01-25T23:40:20.203Z,-0.24
2023-01-25T23:42:48.480Z,-0.24
2023-01-25T23:45:19.244Z,-0.05
2023-01-25T23:47:47.599Z,-0.04
2023-01-25T23:50:16.598Z,0.05
2023-01-25T23:52:44.735Z,0.03
2023-01-25T23:55:12.998Z,-0.10
2023-01-25T23:57:43.080Z,0.18
